createdAt,value
2019-03-23T00:01:57.569Z,20.57
2019-03-23T00:04:26.349Z,20.37
2019-03-23T00:06:54.764Z,20.30
2019-03-23T00:09:23.192Z,18.63
2019-03-23T00:11:51.606Z,20.67
2019-03-23T00:14:20.040Z,18.87
2019-03-23T00:16:48.457Z,20.17
2019-03-23T00:19:16.874Z,17.80
2019-03-23T00:21:45.316Z,16.93
2019-03-23T00:24:13.736Z,17.63
2019-03-23T00:26:42.173Z,18.73
2019-03-23T00:29:10.589Z,18.27
2019-03-23T00:31:39.021Z,18.97
2019-03-23T00:34:07.436Z,19.37
2019-03-23T00:36:41.430Z,18.63
2019-03-23T00:39:06.589Z,18.37
2019-03-23T00:41:35.202Z,17.80
2019-03-23T00:44:03.618Z,18.03
2019-03-23T00:46:32.108Z,17.97
2019-03-23T00:49:00.521Z,18.43
2019-03-23T00:51:28.953Z,19.20
2019-03-23T00:53:57.382Z,18.90
2019-03-23T00:56:25.809Z,18.50
2019-03-23T00:58:54.228Z,18.63
2019-03-23T01:01:22.675Z,18.03
2019-03-23T01:03:51.097Z,18.33
2019-03-23T01:06:19.521Z,18.90
2019-03-23T01:08:47.943Z,17.57
2019-03-23T01:11:16.366Z,18.40
2019-03-23T01:13:44.780Z,19.10
2019-03-23T01:16:13.213Z,20.37
2019-03-23T01:18:41.631Z,19.53
2019-03-23T01:21:10.060Z,20.30
2019-03-23T01:23:38.477Z,18.20
2019-03-23T01:26:06.968Z,17.93
2019-03-23T01:28:35.392Z,18.27
2019-03-23T01:31:03.825Z,19.00
2019-03-23T01:33:32.247Z,18.83
2019-03-23T01:36:00.688Z,17.83
2019-03-23T01:38:29.360Z,17.53
2019-03-23T01:40:57.789Z,18.57
2019-03-23T01:43:26.212Z,18.37
2019-03-23T01:45:54.909Z,18.20
2019-03-23T01:48:23.320Z,17.83
2019-03-23T01:50:51.746Z,18.00
2019-03-23T01:53:20.161Z,17.23
2019-03-23T01:55:48.576Z,17.27
2019-03-23T01:58:17.018Z,18.23
2019-03-23T02:00:45.424Z,17.37
2019-03-23T02:03:13.846Z,16.70
2019-03-23T02:05:42.261Z,18.13
2019-03-23T02:08:10.688Z,18.30
2019-03-23T02:10:38.776Z,17.90
2019-03-23T02:13:07.208Z,18.53
2019-03-23T02:15:35.624Z,18.83
2019-03-23T02:18:04.056Z,17.30
2019-03-23T02:20:32.465Z,17.40
2019-03-23T02:23:00.917Z,16.57
2019-03-23T02:25:29.004Z,18.33
2019-03-23T02:27:57.441Z,18.17
2019-03-23T02:30:25.858Z,18.70
2019-03-23T02:32:54.289Z,17.90
2019-03-23T02:35:22.789Z,18.27
2019-03-23T02:37:51.214Z,17.90
2019-03-23T02:40:19.629Z,17.00
2019-03-23T02:42:48.058Z,17.27
2019-03-23T02:45:16.837Z,17.93
2019-03-23T02:47:45.260Z,18.03
2019-03-23T02:50:13.676Z,17.43
2019-03-23T02:52:42.103Z,18.53
2019-03-23T02:55:10.949Z,17.67
2019-03-23T02:57:39.395Z,17.77
2019-03-23T03:00:10.774Z,17.03
2019-03-23T03:02:39.210Z,18.00
2019-03-23T03:05:09.060Z,17.93
2019-03-23T03:07:42.520Z,18.40
2019-03-23T03:10:11.151Z,18.57
2019-03-23T03:12:39.572Z,18.07
2019-03-23T03:15:08.928Z,19.17
2019-03-23T03:17:37.024Z,18.40
2019-03-23T03:20:10.176Z,17.93
2019-03-23T03:22:38.721Z,19.00
2019-03-23T03:25:07.909Z,17.93
2019-03-23T03:27:36.387Z,18.80
2019-03-23T03:30:06.841Z,19.40
2019-03-23T03:32:35.285Z,19.53
2019-03-23T03:35:04.368Z,20.23
2019-03-23T03:37:32.790Z,20.70
2019-03-23T03:40:01.206Z,20.63
2019-03-23T03:42:29.696Z,20.27
2019-03-23T03:44:58.115Z,18.27
2019-03-23T03:47:26.554Z,19.37
2019-03-23T03:49:55.246Z,19.53
2019-03-23T03:52:23.664Z,19.30
2019-03-23T03:54:52.077Z,19.03
2019-03-23T03:57:20.506Z,18.77
2019-03-23T03:59:49.269Z,18.90
2019-03-23T04:02:17.692Z,18.80
2019-03-23T04:04:46.114Z,19.70
2019-03-23T04:07:14.539Z,18.40
2019-03-23T04:09:42.959Z,18.87
2019-03-23T04:12:11.400Z,17.80
2019-03-23T04:14:39.824Z,19.17
2019-03-23T04:17:08.247Z,18.27
2019-03-23T04:19:36.681Z,18.93
2019-03-23T04:22:05.089Z,18.97
2019-03-23T04:24:33.516Z,18.70
2019-03-23T04:27:03.568Z,18.40
2019-03-23T04:29:32.072Z,18.13
2019-03-23T04:32:00.478Z,18.10
2019-03-23T04:34:28.909Z,18.23
2019-03-23T04:36:57.328Z,18.63
2019-03-23T04:39:25.762Z,17.43
2019-03-23T04:41:54.176Z,17.17
2019-03-23T04:44:22.628Z,17.10
2019-03-23T04:46:51.334Z,17.63
2019-03-23T04:49:19.764Z,18.30
2019-03-23T04:51:48.189Z,17.73
2019-03-23T04:54:16.613Z,16.97
2019-03-23T04:56:45.029Z,16.40
2019-03-23T04:59:13.739Z,17.73
2019-03-23T05:01:42.158Z,16.47
2019-03-23T05:04:10.580Z,16.13
2019-03-23T05:06:39.004Z,17.10
2019-03-23T05:09:09.056Z,16.93
2019-03-23T05:11:37.480Z,17.40
2019-03-23T05:14:05.921Z,17.50
2019-03-23T05:16:34.345Z,16.83
2019-03-23T05:19:02.763Z,16.43
2019-03-23T05:21:31.181Z,16.97
2019-03-23T05:23:59.602Z,16.73
2019-03-23T05:26:28.018Z,18.17
2019-03-23T05:28:56.441Z,16.33
2019-03-23T05:31:25.156Z,17.83
2019-03-23T05:33:53.620Z,16.60
2019-03-23T05:36:22.032Z,15.83
2019-03-23T05:38:50.453Z,16.03
2019-03-23T05:41:18.872Z,16.47
2019-03-23T05:43:47.306Z,17.37
2019-03-23T05:46:15.720Z,16.90
2019-03-23T05:48:44.148Z,16.23
2019-03-23T05:51:12.567Z,17.03
2019-03-23T05:53:41.069Z,16.97
2019-03-23T05:56:09.838Z,16.13
2019-03-23T05:58:38.255Z,17.10
2019-03-23T06:01:06.676Z,16.60
2019-03-23T06:03:35.104Z,19.07
2019-03-23T06:06:03.520Z,18.30
2019-03-23T06:08:31.944Z,16.80
2019-03-23T06:11:00.359Z,16.97
2019-03-23T06:13:28.793Z,15.93
2019-03-23T06:15:57.200Z,17.00
2019-03-23T06:18:25.616Z,17.43
2019-03-23T06:20:54.054Z,16.53
2019-03-23T06:23:22.465Z,16.17
2019-03-23T06:25:50.901Z,16.33
2019-03-23T06:28:19.317Z,16.80
2019-03-23T06:30:47.762Z,16.43
2019-03-23T06:33:16.568Z,16.57
2019-03-23T06:35:45.360Z,16.87
2019-03-23T06:38:16.192Z,16.60
2019-03-23T06:40:43.985Z,16.83
2019-03-23T06:43:12.400Z,16.33
2019-03-23T06:45:40.829Z,16.33
2019-03-23T06:48:09.265Z,15.97
2019-03-23T06:50:37.692Z,16.83
2019-03-23T06:53:06.107Z,16.53
2019-03-23T06:55:34.542Z,18.17
2019-03-23T06:58:02.952Z,15.60
2019-03-23T07:00:31.612Z,19.83
2019-03-23T07:03:00.029Z,18.87
2019-03-23T07:05:28.457Z,17.63
2019-03-23T07:07:56.871Z,16.87
2019-03-23T07:10:25.307Z,16.50
2019-03-23T07:12:53.716Z,15.90
2019-03-23T07:15:22.384Z,15.47
2019-03-23T07:17:50.803Z,16.47
2019-03-23T07:20:19.244Z,16.03
2019-03-23T07:22:47.660Z,17.47
2019-03-23T07:25:16.093Z,16.27
2019-03-23T07:27:44.511Z,16.50
2019-03-23T07:30:15.245Z,17.57
2019-03-23T07:32:43.670Z,16.23
2019-03-23T07:35:12.425Z,17.67
2019-03-23T07:37:40.874Z,17.17
2019-03-23T07:40:11.141Z,16.50
2019-03-23T07:42:39.628Z,17.03
2019-03-23T07:45:10.777Z,16.60
2019-03-23T07:47:39.207Z,17.00
2019-03-23T07:50:09.569Z,16.77
2019-03-23T07:52:38.002Z,17.97
2019-03-23T07:55:14.675Z,17.17
2019-03-23T07:57:43.636Z,17.63
2019-03-23T08:00:18.494Z,17.70
2019-03-23T08:02:46.911Z,16.97
2019-03-23T08:05:15.340Z,18.20
2019-03-23T08:07:43.755Z,17.50
2019-03-23T08:10:26.792Z,17.53
2019-03-23T08:12:55.222Z,17.40
2019-03-23T08:15:23.640Z,17.77
2019-03-23T08:17:52.048Z,16.90
2019-03-23T08:20:20.548Z,17.37
2019-03-23T08:22:48.961Z,18.00
2019-03-23T08:25:17.380Z,18.17
2019-03-23T08:27:45.797Z,17.33
2019-03-23T08:30:14.292Z,17.60
2019-03-23T08:32:42.727Z,17.97
2019-03-23T08:35:11.205Z,18.70
2019-03-23T08:37:39.669Z,18.13
2019-03-23T08:40:08.572Z,18.33
2019-03-23T08:42:36.997Z,17.20
2019-03-23T08:45:06.556Z,18.77
2019-03-23T08:47:35.281Z,18.17
2019-03-23T08:50:06.221Z,18.27
2019-03-23T08:52:34.632Z,18.73
2019-03-23T08:55:03.048Z,17.50
2019-03-23T08:57:31.470Z,17.73
2019-03-23T08:59:59.889Z,18.60
2019-03-23T09:02:28.305Z,16.53
2019-03-23T09:04:56.736Z,19.67
2019-03-23T09:07:25.146Z,18.90
2019-03-23T09:09:59.208Z,18.17
2019-03-23T09:12:23.701Z,18.03
2019-03-23T09:14:52.123Z,17.40
2019-03-23T09:17:20.545Z,18.57
2019-03-23T09:19:48.961Z,18.00
2019-03-23T09:22:17.384Z,18.60
2019-03-23T09:24:45.814Z,19.17
2019-03-23T09:27:14.237Z,18.33
2019-03-23T09:29:43.804Z,18.73
2019-03-23T09:32:12.296Z,17.80
2019-03-23T09:34:40.713Z,19.57
2019-03-23T09:37:09.149Z,18.37
2019-03-23T09:39:37.568Z,19.10
2019-03-23T09:42:07.170Z,18.37
2019-03-23T09:44:35.677Z,17.93
2019-03-23T09:47:04.183Z,18.63
2019-03-23T09:49:32.599Z,17.97
2019-03-23T09:52:01.024Z,18.73
2019-03-23T09:54:29.445Z,18.60
2019-03-23T09:56:59.577Z,18.33
2019-03-23T09:59:29.569Z,18.30
2019-03-23T10:01:57.996Z,19.03
2019-03-23T10:04:26.421Z,19.73
2019-03-23T10:06:54.844Z,19.00
2019-03-23T10:09:23.259Z,20.07
2019-03-23T10:11:51.689Z,20.30
2019-03-23T10:14:20.173Z,19.43
2019-03-23T10:16:48.604Z,18.90
2019-03-23T10:19:17.020Z,18.70
2019-03-23T10:21:45.444Z,18.37
2019-03-23T10:24:13.857Z,19.43
2019-03-23T10:26:42.282Z,18.07
2019-03-23T10:29:10.709Z,20.60
2019-03-23T10:31:39.141Z,20.50
2019-03-23T10:34:07.589Z,19.63
2019-03-23T10:36:36.008Z,19.90
2019-03-23T10:39:05.869Z,19.80
2019-03-23T10:41:34.374Z,19.90
2019-03-23T10:44:02.788Z,19.50
2019-03-23T10:46:31.216Z,17.37
2019-03-23T10:48:59.979Z,19.90
2019-03-23T10:51:47.734Z,19.80
2019-03-23T10:54:16.152Z,17.90
2019-03-23T10:56:44.584Z,18.83
2019-03-23T10:59:13.000Z,20.17
2019-03-23T11:01:41.432Z,20.93
2019-03-23T11:04:09.845Z,19.97
2019-03-23T11:06:38.276Z,19.80
2019-03-23T11:09:07.172Z,20.60
2019-03-23T11:11:35.600Z,21.10
2019-03-23T11:14:04.032Z,20.57
2019-03-23T11:16:32.467Z,20.40
2019-03-23T11:19:00.885Z,22.90
2019-03-23T11:21:29.328Z,19.90
2019-03-23T11:23:57.732Z,19.50
2019-03-23T11:26:28.072Z,20.13
2019-03-23T11:28:56.307Z,19.97
2019-03-23T11:31:25.047Z,20.13
2019-03-23T11:33:53.462Z,21.30
2019-03-23T11:36:21.885Z,20.63
2019-03-23T11:38:50.302Z,19.80
2019-03-23T11:41:18.720Z,20.90
2019-03-23T11:43:47.146Z,21.00
2019-03-23T11:46:17.047Z,20.50
2019-03-23T11:48:45.660Z,19.67
2019-03-23T11:51:14.080Z,19.47
2019-03-23T11:53:42.517Z,19.83
2019-03-23T11:56:10.929Z,20.17
2019-03-23T11:58:39.356Z,20.53
2019-03-23T12:01:07.802Z,21.40
2019-03-23T12:03:36.278Z,20.83
2019-03-23T12:06:04.753Z,21.97
2019-03-23T12:08:33.180Z,21.10
2019-03-23T12:11:03.143Z,22.07
2019-03-23T12:13:32.095Z,21.47
2019-03-23T12:16:00.784Z,21.90
2019-03-23T12:18:29.212Z,22.50
2019-03-23T12:20:57.628Z,22.27
2019-03-23T12:23:26.060Z,22.07
2019-03-23T12:25:54.723Z,22.27
2019-03-23T12:28:23.142Z,22.43
2019-03-23T12:30:51.557Z,22.03
2019-03-23T12:33:21.488Z,20.80
2019-03-23T12:35:50.083Z,22.43
2019-03-23T12:38:18.858Z,22.77
2019-03-23T12:40:47.285Z,21.97
2019-03-23T12:43:15.712Z,21.87
2019-03-23T12:45:44.129Z,23.73
2019-03-23T12:48:12.560Z,22.80
2019-03-23T12:50:40.968Z,22.97
2019-03-23T12:53:09.398Z,22.90
2019-03-23T12:55:38.119Z,24.67
2019-03-23T12:58:06.548Z,22.83
2019-03-23T13:00:35.286Z,23.47
2019-03-23T13:03:03.780Z,23.37
2019-03-23T13:05:32.217Z,23.00
2019-03-23T13:08:00.936Z,21.90
2019-03-23T13:10:29.348Z,22.10
2019-03-23T13:12:58.488Z,22.53
2019-03-23T13:15:26.986Z,21.07
2019-03-23T13:17:55.506Z,21.80
2019-03-23T13:20:24.027Z,21.83
2019-03-23T13:22:52.850Z,22.97
2019-03-23T13:25:21.531Z,21.63
2019-03-23T13:27:49.952Z,21.30
2019-03-23T13:30:18.740Z,22.60
2019-03-23T13:32:47.236Z,22.10
2019-03-23T13:35:15.661Z,21.93
2019-03-23T13:37:44.145Z,22.07
2019-03-23T13:40:13.108Z,21.23
2019-03-23T13:42:41.530Z,22.53
2019-03-23T13:45:10.678Z,21.40
2019-03-23T13:47:39.808Z,22.63
2019-03-23T13:50:10.582Z,22.83
2019-03-23T13:52:39.330Z,24.03
2019-03-23T13:55:09.553Z,22.97
2019-03-23T13:57:37.981Z,26.48
2019-03-23T14:00:10.451Z,23.93
2019-03-23T14:02:38.867Z,23.30
2019-03-23T14:05:15.732Z,23.87
2019-03-23T14:07:37.831Z,23.80
2019-03-23T14:10:28.077Z,24.20
2019-03-23T14:12:56.713Z,23.77
2019-03-23T14:15:25.140Z,23.90
2019-03-23T14:17:53.839Z,24.23
2019-03-23T14:20:22.257Z,24.00
2019-03-23T14:22:50.691Z,23.27
2019-03-23T14:25:19.100Z,23.53
2019-03-23T14:27:47.517Z,24.47
2019-03-23T14:30:16.612Z,22.50
2019-03-23T14:32:45.034Z,25.03
2019-03-23T14:35:13.461Z,23.80
2019-03-23T14:37:41.880Z,23.93
2019-03-23T14:40:10.478Z,25.07
2019-03-23T14:42:38.897Z,22.90
2019-03-23T14:45:07.588Z,23.23
2019-03-23T14:47:36.013Z,24.03
2019-03-23T14:50:05.980Z,24.63
2019-03-23T14:52:34.408Z,24.73
2019-03-23T14:55:03.006Z,23.20
2019-03-23T14:57:31.423Z,23.60
2019-03-23T14:59:59.857Z,25.13
2019-03-23T15:02:28.277Z,22.03
2019-03-23T15:04:56.713Z,24.33
2019-03-23T15:07:26.060Z,23.43
2019-03-23T15:09:54.729Z,24.93
2019-03-23T15:12:23.140Z,23.23
2019-03-23T15:14:51.573Z,23.77
2019-03-23T15:17:19.989Z,22.17
2019-03-23T15:19:48.420Z,23.53
2019-03-23T15:22:16.833Z,24.00
2019-03-23T15:24:45.201Z,24.17
2019-03-23T15:27:13.621Z,24.50
2019-03-23T15:29:42.047Z,24.57
2019-03-23T15:32:10.733Z,24.10
2019-03-23T15:34:39.164Z,23.10
2019-03-23T15:37:07.929Z,23.77
2019-03-23T15:39:36.356Z,23.37
2019-03-23T15:42:04.845Z,22.73
2019-03-23T15:44:33.264Z,24.40
2019-03-23T15:47:01.700Z,23.33
2019-03-23T15:49:30.124Z,23.97
2019-03-23T15:51:58.541Z,24.30
2019-03-23T15:54:26.976Z,24.13
2019-03-23T15:56:55.648Z,23.90
2019-03-23T15:59:24.077Z,23.27
2019-03-23T16:01:52.493Z,22.30
2019-03-23T16:04:20.921Z,24.77
2019-03-23T16:06:49.341Z,22.43
2019-03-23T16:09:17.773Z,23.20
2019-03-23T16:11:46.197Z,23.00
2019-03-23T16:14:14.609Z,23.10
2019-03-23T16:16:43.280Z,23.73
2019-03-23T16:19:11.697Z,24.47
2019-03-23T16:21:40.133Z,24.33
2019-03-23T16:24:08.553Z,23.77
2019-03-23T16:26:36.985Z,23.63
2019-03-23T16:29:05.413Z,23.93
2019-03-23T16:31:34.085Z,24.10
2019-03-23T16:34:02.516Z,23.80
2019-03-23T16:36:30.938Z,24.23
2019-03-23T16:38:59.353Z,23.77
2019-03-23T16:41:27.781Z,23.57
2019-03-23T16:43:56.200Z,25.50
2019-03-23T16:46:24.630Z,24.00
2019-03-23T16:48:53.343Z,23.33
2019-03-23T16:51:21.764Z,24.00
2019-03-23T16:53:50.205Z,23.63
2019-03-23T16:56:18.889Z,23.80
2019-03-23T16:58:47.613Z,24.30
2019-03-23T17:01:16.074Z,23.97
2019-03-23T17:03:44.845Z,25.50
2019-03-23T17:06:13.268Z,25.27
2019-03-23T17:08:41.688Z,23.87
2019-03-23T17:11:10.113Z,24.80
2019-03-23T17:13:38.535Z,23.00
2019-03-23T17:16:06.956Z,24.53
2019-03-23T17:18:35.372Z,24.97
2019-03-23T17:21:03.892Z,24.30
2019-03-23T17:23:32.296Z,25.07
2019-03-23T17:26:00.728Z,24.17
2019-03-23T17:28:29.184Z,24.83
2019-03-23T17:30:57.621Z,25.40
2019-03-23T17:33:26.055Z,26.37
2019-03-23T17:35:54.479Z,25.20
2019-03-23T17:38:22.896Z,26.17
2019-03-23T17:40:51.658Z,26.80
2019-03-23T17:43:20.069Z,26.90
2019-03-23T17:45:48.524Z,26.53
2019-03-23T17:48:16.942Z,26.37
2019-03-23T17:50:45.693Z,26.67
2019-03-23T17:53:14.105Z,27.37
2019-03-23T17:55:42.532Z,25.67
2019-03-23T17:58:10.956Z,26.27
2019-03-23T18:00:39.384Z,25.37
2019-03-23T18:03:07.816Z,25.30
2019-03-23T18:05:36.241Z,26.53
2019-03-23T18:08:04.664Z,25.33
2019-03-23T18:10:33.434Z,25.60
2019-03-23T18:13:01.867Z,24.20
2019-03-23T18:15:30.317Z,24.57
2019-03-23T18:17:58.724Z,25.63
2019-03-23T18:20:27.217Z,25.03
2019-03-23T18:22:55.676Z,25.60
2019-03-23T18:25:24.100Z,25.40
2019-03-23T18:27:52.524Z,27.57
2019-03-23T18:30:51.036Z,27.73
2019-03-23T18:33:19.773Z,26.37
2019-03-23T18:35:48.226Z,25.80
2019-03-23T18:38:16.929Z,25.37
2019-03-23T18:40:45.419Z,25.70
2019-03-23T18:43:13.844Z,24.43
2019-03-23T18:45:42.269Z,24.57
2019-03-23T18:48:10.685Z,23.37
2019-03-23T18:50:39.112Z,24.50
2019-03-23T18:53:07.536Z,25.23
2019-03-23T18:55:35.956Z,26.40
2019-03-23T18:58:04.718Z,25.13
2019-03-23T19:00:35.546Z,25.20
2019-03-23T19:03:04.041Z,25.87
2019-03-23T19:05:32.789Z,33.30
2019-03-23T19:08:01.232Z,28.30
2019-03-23T19:10:29.962Z,27.53
2019-03-23T19:12:58.390Z,27.23
2019-03-23T19:15:26.801Z,28.07
2019-03-23T19:17:55.231Z,28.20
2019-03-23T19:20:23.976Z,29.13
2019-03-23T19:22:52.407Z,28.73
2019-03-23T19:25:20.825Z,26.70
2019-03-23T19:27:49.525Z,26.83
2019-03-23T19:30:18.977Z,24.03
2019-03-23T19:32:47.421Z,25.10
2019-03-23T19:35:15.901Z,26.27
2019-03-23T19:37:44.321Z,25.27
2019-03-23T19:40:12.978Z,26.20
2019-03-23T19:42:41.403Z,25.83
2019-03-23T19:45:10.127Z,25.90
2019-03-23T19:47:38.539Z,24.17
2019-03-23T19:50:07.896Z,25.00
2019-03-23T19:52:36.320Z,24.47
2019-03-23T19:55:07.781Z,23.37
2019-03-23T19:57:36.202Z,23.13
2019-03-23T20:00:09.692Z,23.73
2019-03-23T20:02:38.115Z,23.10
2019-03-23T20:05:07.073Z,23.57
2019-03-23T20:07:35.492Z,25.50
2019-03-23T20:10:05.850Z,27.50
2019-03-23T20:12:34.269Z,24.93
2019-03-23T20:15:02.682Z,25.10
2019-03-23T20:17:31.109Z,25.50
2019-03-23T20:19:59.520Z,27.93
2019-03-23T20:22:28.308Z,29.17
2019-03-23T20:24:56.721Z,29.47
2019-03-23T20:27:25.473Z,27.50
2019-03-23T20:29:53.900Z,26.97
2019-03-23T20:32:22.309Z,27.47
2019-03-23T20:34:50.737Z,28.97
2019-03-23T20:37:19.149Z,27.97
2019-03-23T20:39:47.572Z,26.33
2019-03-23T20:42:15.984Z,29.43
2019-03-23T20:44:44.410Z,29.10
2019-03-23T20:47:12.839Z,28.43
2019-03-23T20:49:41.496Z,30.73
2019-03-23T20:52:09.912Z,28.00
2019-03-23T20:54:38.396Z,27.27
2019-03-23T20:57:06.812Z,27.87
2019-03-23T20:59:35.232Z,27.53
2019-03-23T21:02:03.645Z,27.90
2019-03-23T21:04:32.068Z,29.93
2019-03-23T21:07:00.481Z,29.60
2019-03-23T21:09:29.246Z,30.47
2019-03-23T21:11:57.657Z,31.80
2019-03-23T21:14:26.087Z,30.57
2019-03-23T21:16:54.781Z,31.13
2019-03-23T21:19:23.200Z,31.63
2019-03-23T21:21:51.948Z,32.00
2019-03-23T21:24:20.369Z,32.10
2019-03-23T21:26:48.777Z,32.17
2019-03-23T21:29:17.201Z,32.23
2019-03-23T21:31:45.612Z,33.63
2019-03-23T21:34:14.032Z,32.67
2019-03-23T21:36:42.444Z,34.33
2019-03-23T21:39:10.869Z,35.53
2019-03-23T21:41:42.259Z,36.90
2019-03-23T21:44:10.684Z,36.60
2019-03-23T21:46:39.105Z,36.67
2019-03-23T21:49:07.528Z,37.23
2019-03-23T21:51:35.936Z,37.37
2019-03-23T21:54:04.420Z,37.77
2019-03-23T21:56:32.836Z,36.23
2019-03-23T21:59:01.261Z,37.33
2019-03-23T22:01:29.678Z,37.93
2019-03-23T22:03:58.383Z,39.13
2019-03-23T22:06:26.871Z,39.50
2019-03-23T22:08:55.311Z,39.77
2019-03-23T22:11:23.735Z,39.50
2019-03-23T22:13:52.434Z,37.80
2019-03-23T22:16:20.841Z,38.80
2019-03-23T22:18:49.268Z,36.13
2019-03-23T22:21:17.680Z,35.93
2019-03-23T22:23:46.094Z,36.33
2019-03-23T22:26:14.818Z,36.93
2019-03-23T22:28:43.224Z,35.03
2019-03-23T22:31:11.648Z,35.93
2019-03-23T22:33:40.073Z,39.33
2019-03-23T22:36:08.496Z,36.80
2019-03-23T22:38:36.918Z,38.57
2019-03-23T22:41:05.342Z,36.53
2019-03-23T22:43:33.757Z,36.57
2019-03-23T22:46:02.193Z,38.33
2019-03-23T22:48:30.604Z,45.67
2019-03-23T22:50:59.041Z,47.77
2019-03-23T22:53:27.456Z,48.17
2019-03-23T22:55:55.948Z,49.03
2019-03-23T22:58:24.389Z,46.47
2019-03-23T23:00:54.321Z,43.20
2019-03-23T23:03:22.815Z,42.17
2019-03-23T23:05:51.240Z,35.77
2019-03-23T23:08:19.692Z,34.53
2019-03-23T23:10:48.194Z,38.00
2019-03-23T23:13:16.644Z,34.60
2019-03-23T23:15:45.065Z,40.57
2019-03-23T23:18:13.487Z,42.77
2019-03-23T23:20:41.920Z,39.80
2019-03-23T23:23:10.349Z,43.10
2019-03-23T23:25:38.786Z,41.53
2019-03-23T23:28:07.291Z,40.03
2019-03-23T23:30:35.866Z,41.50
2019-03-23T23:33:04.351Z,43.47
2019-03-23T23:35:33.608Z,43.80
2019-03-23T23:38:02.020Z,43.93
2019-03-23T23:40:30.786Z,43.57
2019-03-23T23:42:59.202Z,42.83
2019-03-23T23:45:27.638Z,44.93
2019-03-23T23:47:56.048Z,43.90
2019-03-23T23:50:24.476Z,45.60
2019-03-23T23:52:52.896Z,46.70
2019-03-23T23:55:21.328Z,49.10
2019-03-23T23:57:49.748Z,45.77
